Terminal Aerodrome Forecast
Issued by NWS

Home | Current Version | Previous Version | Graphics & Text | Print | Product List | Glossary On
Versions: 1 2 3 4 5 6 7 8 9 10 11 12 13 14
000
FTUS43 KGRB 282325
TAFAUW
TAF
KAUW 282325Z 2900/2924 16009KT P6SM SCT025 BKN035
     FM290400 22007KT P6SM VCSH BKN045
      TEMPO 2905/2908 2SM TSRA BKN020CB
     FM290900 27008KT P6SM SCT100 BKN250
     FM291300 26013G23KT P6SM SCT100
     FM291500 26020G33KT P6SM SCT040 SCT080=

USA.gov is the U.S. government's official web portal to all federal, state and local government web resources and services.